Time;durP1;ratioP1;P1;durP2;ratioP2;P2;SDS_P1;SDS_P2;PMS_P1;PMS_P2;Temp;Humidity;BMP_temperature;BMP_pressure;BME280_temperature;BME280_humidity;BME280_pressure;Samples;Min_cycle;Max_cycle;Signal;HPM_P1;HPM_P2
2023/02/01 00:01:20;;;;;;;20.30;12.30;;;8.10;99.90;;;;;;5059257;28;20248;-90
2023/02/01 00:03:46;;;;;;;26.10;12.47;;;8.10;99.90;;;;;;5058073;28;20208;-88
2023/02/01 00:06:11;;;;;;;24.93;13.73;;;8.20;99.90;;;;;;5057360;28;20212;-89
2023/02/01 00:08:37;;;;;;;21.20;12.33;;;8.20;99.90;;;;;;5055604;28;20585;-87
2023/02/01 00:11:05;;;;;;;22.73;12.80;;;8.30;99.90;;;;;;5057161;28;20185;-88
2023/02/01 00:13:33;;;;;;;27.30;13.17;;;8.20;99.90;;;;;;5056127;28;20529;-89
2023/02/01 00:16:07;;;;;;;22.83;13.77;;;8.20;99.90;;;;;;5061632;28;20192;-88
2023/02/01 00:18:33;;;;;;;24.20;13.13;;;8.30;99.90;;;;;;5062433;28;20185;-87
2023/02/01 00:20:59;;;;;;;23.97;14.03;;;8.30;99.90;;;;;;5056795;28;20629;-88
2023/02/01 00:23:25;;;;;;;30.03;14.27;;;8.30;99.90;;;;;;5038795;28;20240;-89
2023/02/01 00:25:51;;;;;;;25.90;13.07;;;8.30;99.90;;;;;;5067219;28;20209;-87
2023/02/01 00:28:16;;;;;;;34.10;14.23;;;8.20;99.90;;;;;;5055245;28;20182;-88
2023/02/01 00:30:42;;;;;;;25.13;14.17;;;8.20;99.90;;;;;;5055106;28;20184;-89
2023/02/01 00:33:08;;;;;;;26.10;13.63;;;8.30;99.90;;;;;;5054857;28;20181;-89
2023/02/01 00:35:34;;;;;;;27.50;14.00;;;8.20;99.90;;;;;;5055379;28;20173;-88
2023/02/01 00:38:01;;;;;;;24.07;12.87;;;8.30;99.90;;;;;;5066020;28;20272;-87
2023/02/01 00:40:26;;;;;;;22.60;11.97;;;8.10;99.90;;;;;;5055725;28;20168;-88
2023/02/01 00:42:52;;;;;;;20.63;11.23;;;8.10;99.90;;;;;;5057930;28;20211;-85
2023/02/01 00:45:19;;;;;;;20.93;11.70;;;8.20;99.90;;;;;;5068148;28;20245;-87
2023/02/01 00:47:46;;;;;;;20.80;8.77;;;8.30;99.90;;;;;;5075160;28;20251;-87
2023/02/01 00:50:12;;;;;;;19.43;9.27;;;8.10;99.90;;;;;;5065220;28;20239;-88
2023/02/01 00:52:40;;;;;;;22.63;10.00;;;8.10;99.90;;;;;;5059881;28;20625;-89
2023/02/01 00:55:07;;;;;;;21.97;9.73;;;8.20;99.90;;;;;;5058752;28;20173;-89
2023/02/01 00:57:33;;;;;;;24.93;8.77;;;8.20;99.90;;;;;;5060542;28;20173;-87
2023/02/01 00:59:59;;;;;;;22.10;8.37;;;8.30;99.90;;;;;;5072194;28;20153;-88
2023/02/01 01:02:26;;;;;;;19.40;8.90;;;8.30;99.90;;;;;;5064476;28;20244;-89
2023/02/01 01:04:57;;;;;;;21.73;8.43;;;8.30;99.90;;;;;;5059724;28;20621;-89
2023/02/01 01:07:23;;;;;;;19.03;8.47;;;8.20;99.90;;;;;;5056560;28;20180;-86
2023/02/01 01:09:49;;;;;;;18.97;7.63;;;8.10;99.90;;;;;;5057587;28;20196;-88
2023/02/01 01:12:16;;;;;;;18.77;8.03;;;8.20;99.90;;;;;;5059622;28;20173;-89
2023/02/01 01:14:45;;;;;;;15.87;6.73;;;8.10;99.90;;;;;;5058364;28;20176;-87
2023/02/01 01:17:11;;;;;;;23.37;7.67;;;8.20;99.90;;;;;;5057507;28;20173;-89
2023/02/01 01:19:37;;;;;;;16.57;7.27;;;8.30;99.90;;;;;;5061271;28;20176;-87
2023/02/01 01:22:03;;;;;;;20.23;7.17;;;8.40;99.50;;;;;;5058387;28;20199;-86
2023/02/01 01:24:29;;;;;;;23.83;6.93;;;8.40;98.20;;;;;;5065061;28;20252;-86
2023/02/01 01:26:54;;;;;;;15.20;7.00;;;8.20;97.70;;;;;;5059114;28;20212;-89
2023/02/01 01:29:22;;;;;;;22.03;6.63;;;8.20;96.80;;;;;;5057329;28;20240;-89
2023/02/01 01:31:50;;;;;;;18.93;6.50;;;8.30;96.50;;;;;;5056398;28;20179;-89
2023/02/01 01:34:15;;;;;;;17.50;6.63;;;8.30;95.40;;;;;;5057396;28;20176;-88
2023/02/01 01:36:41;;;;;;;12.83;5.67;;;8.30;94.10;;;;;;5078674;28;20184;-89
2023/02/01 01:39:07;;;;;;;14.33;5.30;;;8.20;92.70;;;;;;5077234;28;20675;-88
2023/02/01 01:41:33;;;;;;;19.63;5.63;;;8.30;91.50;;;;;;5071098;28;20185;-86
2023/02/01 01:44:26;;;;;;;18.07;5.13;;;8.20;89.50;;;;;;5063110;28;20177;-89
2023/02/01 01:46:52;;;;;;;17.20;5.80;;;8.30;87.10;;;;;;5055988;28;20362;-88
2023/02/01 01:49:23;;;;;;;17.30;4.93;;;8.30;81.50;;;;;;5068219;28;20184;-87
2023/02/01 01:52:00;;;;;;;13.37;4.60;;;8.30;81.10;;;;;;5078265;28;20192;-87
2023/02/01 01:54:31;;;;;;;15.93;4.50;;;8.50;78.70;;;;;;5079453;28;20226;-86
2023/02/01 01:57:07;;;;;;;14.53;5.03;;;8.30;79.80;;;;;;5080769;28;20164;-83
2023/02/01 01:59:48;;;;;;;14.20;4.40;;;8.20;77.80;;;;;;5078856;28;20844;-87
2023/02/01 02:02:14;;;;;;;15.30;4.90;;;8.20;78.60;;;;;;5067484;28;20165;-87
2023/02/01 02:04:40;;;;;;;17.17;4.73;;;8.20;78.30;;;;;;5067071;28;20173;-88
2023/02/01 02:07:14;;;;;;;15.63;5.20;;;8.10;79.10;;;;;;5066218;28;20259;-88
2023/02/01 02:09:40;;;;;;;16.17;4.93;;;8.20;74.30;;;;;;5066013;28;20196;-88
2023/02/01 02:12:11;;;;;;;16.27;4.67;;;8.10;72.50;;;;;;5071219;28;20172;-87
2023/02/01 02:14:37;;;;;;;15.00;4.80;;;8.10;71.50;;;;;;5070120;28;20188;-88
2023/02/01 02:17:29;;;;;;;12.47;4.27;;;8.10;71.70;;;;;;5063597;28;20535;-87
2023/02/01 02:20:29;;;;;;;11.23;4.20;;;8.30;68.50;;;;;;5061035;28;20177;-86
2023/02/01 02:23:00;;;;;;;16.70;4.27;;;8.20;66.40;;;;;;5068007;28;20197;-88
2023/02/01 02:26:01;;;;;;;17.40;5.00;;;8.10;65.70;;;;;;5079046;28;20181;-85
2023/02/01 02:28:51;;;;;;;16.33;5.07;;;8.10;67.20;;;;;;5072230;28;20186;-88
2023/02/01 02:31:42;;;;;;;13.00;4.63;;;8.00;68.70;;;;;;5066502;28;20172;-87
2023/02/01 02:34:34;;;;;;;17.33;4.30;;;8.00;70.00;;;;;;5058724;28;20179;-87
2023/02/01 02:37:22;;;;;;;14.03;5.00;;;8.00;71.40;;;;;;5071408;28;20177;-87
2023/02/01 02:40:10;;;;;;;14.13;4.83;;;8.10;71.60;;;;;;5055746;28;20177;-88
2023/02/01 02:49:18;;;;;;;15.37;4.93;;;8.10;71.30;;;;;;5045949;28;20196;-84
2023/02/01 02:54:51;;;;;;;15.03;4.83;;;8.10;71.20;;;;;;5065728;28;20228;-88
2023/02/01 03:05:56;;;;;;;21.43;4.57;;;8.00;67.10;;;;;;5055666;28;20295;-88
2023/02/01 03:08:26;;;;;;;12.67;4.57;;;7.90;66.40;;;;;;5055264;28;20255;-88
2023/02/01 03:10:54;;;;;;;19.10;4.70;;;8.00;65.90;;;;;;5053524;28;20724;-88
2023/02/01 03:13:38;;;;;;;15.17;4.53;;;7.90;65.50;;;;;;5054696;28;20164;-87
2023/02/01 03:16:28;;;;;;;17.10;4.70;;;8.00;64.30;;;;;;5055719;28;20218;-88
2023/02/01 03:18:53;;;;;;;14.07;4.53;;;8.00;64.30;;;;;;5055040;28;20196;-87
2023/02/01 03:21:27;;;;;;;19.93;5.10;;;7.90;64.30;;;;;;5055249;28;20173;-88
2023/02/01 03:23:57;;;;;;;17.97;4.50;;;7.90;61.70;;;;;;5054797;28;20181;-88
2023/02/01 03:26:29;;;;;;;12.53;4.03;;;7.80;65.00;;;;;;5054412;28;20224;-87
2023/02/01 03:29:05;;;;;;;14.97;4.73;;;7.80;66.30;;;;;;5055861;28;20203;-88
2023/02/01 03:31:31;;;;;;;18.73;4.70;;;7.80;65.30;;;;;;5051639;28;20242;-88
2023/02/01 03:33:58;;;;;;;16.83;4.60;;;7.80;64.70;;;;;;5053593;28;20173;-87
2023/02/01 03:36:31;;;;;;;16.47;4.33;;;7.80;66.50;;;;;;5054461;28;20255;-87
2023/02/01 03:39:29;;;;;;;16.13;4.30;;;7.80;65.20;;;;;;5054099;28;20265;-88
2023/02/01 03:42:02;;;;;;;13.73;4.13;;;7.80;66.10;;;;;;5055497;28;20169;-87
2023/02/01 03:45:00;;;;;;;17.83;4.73;;;7.80;64.50;;;;;;5053801;28;20594;-87
2023/02/01 03:47:32;;;;;;;16.33;3.83;;;7.70;65.60;;;;;;5062423;28;20200;-86
2023/02/01 03:50:03;;;;;;;16.17;5.43;;;7.80;66.00;;;;;;5072125;28;20168;-84
2023/02/01 03:52:34;;;;;;;18.40;4.30;;;7.70;66.10;;;;;;5066307;28;20175;-87
2023/02/01 03:55:04;;;;;;;18.77;4.87;;;7.70;67.20;;;;;;5067182;28;20165;-86
2023/02/01 03:57:35;;;;;;;17.50;4.17;;;7.70;66.40;;;;;;5070328;28;20212;-86
2023/02/01 04:00:21;;;;;;;17.37;5.07;;;7.60;68.80;;;;;;5062649;28;20659;-87
2023/02/01 04:02:47;;;;;;;15.47;4.53;;;7.50;69.30;;;;;;5060608;28;20497;-87
2023/02/01 04:05:14;;;;;;;20.17;4.47;;;7.50;69.40;;;;;;5075868;28;20475;-86
2023/02/01 04:07:41;;;;;;;13.97;3.87;;;7.60;69.00;;;;;;5070460;28;20173;-85
2023/02/01 04:10:11;;;;;;;18.33;4.53;;;7.60;68.70;;;;;;5061725;28;20183;-88
2023/02/01 04:12:38;;;;;;;13.27;4.17;;;7.50;69.40;;;;;;5078036;28;20153;-86
2023/02/01 04:15:05;;;;;;;16.60;4.47;;;7.40;70.80;;;;;;5063445;28;20189;-87
2023/02/01 04:18:05;;;;;;;16.37;4.67;;;7.40;71.30;;;;;;5055593;28;20536;-87
2023/02/01 04:20:31;;;;;;;21.27;4.80;;;7.40;71.00;;;;;;5054917;28;20256;-84
2023/02/01 04:22:56;;;;;;;18.60;4.33;;;7.30;71.10;;;;;;5068718;28;20188;-87
2023/02/01 04:25:22;;;;;;;22.37;5.00;;;7.40;72.00;;;;;;5057186;28;20818;-85
2023/02/01 04:27:48;;;;;;;15.50;4.10;;;7.20;73.40;;;;;;5055275;28;20191;-87
2023/02/01 04:30:16;;;;;;;17.63;4.47;;;7.20;73.50;;;;;;5053833;28;20180;-87
2023/02/01 04:32:42;;;;;;;14.97;4.03;;;7.20;73.10;;;;;;5055604;28;20628;-86
2023/02/01 04:35:08;;;;;;;13.63;4.30;;;7.40;74.00;;;;;;5068492;28;20187;-85
2023/02/01 04:37:34;;;;;;;17.77;4.67;;;7.20;72.70;;;;;;5063586;28;20291;-87
2023/02/01 04:40:00;;;;;;;17.63;5.10;;;7.20;73.30;;;;;;5056241;28;20184;-87
2023/02/01 04:42:25;;;;;;;22.37;4.77;;;7.20;72.90;;;;;;5056431;28;20177;-87
2023/02/01 04:44:51;;;;;;;17.43;5.07;;;7.20;71.50;;;;;;5054470;28;20261;-86
2023/02/01 04:47:17;;;;;;;14.93;4.67;;;7.20;71.80;;;;;;5052367;28;20246;-87
2023/02/01 04:49:43;;;;;;;17.80;4.90;;;7.10;72.60;;;;;;5055118;28;20318;-86
2023/02/01 04:52:09;;;;;;;17.03;4.23;;;7.10;74.10;;;;;;5069048;28;20204;-87
2023/02/01 04:54:35;;;;;;;14.33;4.00;;;7.10;74.30;;;;;;5067820;28;20185;-86
2023/02/01 04:57:00;;;;;;;20.70;5.23;;;7.00;74.60;;;;;;5071766;28;20189;-86
2023/02/01 04:59:26;;;;;;;19.57;4.80;;;7.00;75.90;;;;;;5071634;28;20161;-84
2023/02/01 05:01:53;;;;;;;21.10;4.90;;;7.00;75.60;;;;;;5064093;28;20185;-86
2023/02/01 05:04:19;;;;;;;14.50;3.93;;;7.00;75.90;;;;;;5056461;28;20161;-86
2023/02/01 05:06:45;;;;;;;23.60;4.80;;;6.90;78.60;;;;;;5055334;28;20711;-87
2023/02/01 05:09:11;;;;;;;18.07;4.97;;;6.80;79.90;;;;;;5056046;28;20165;-87
2023/02/01 05:14:27;;;;;;;15.77;4.57;;;6.80;79.00;;;;;;5057415;28;20238;-88
2023/02/01 05:16:53;;;;;;;19.23;4.50;;;6.80;77.70;;;;;;5055086;28;20178;-86
2023/02/01 05:19:19;;;;;;;16.67;4.33;;;6.70;79.70;;;;;;5054880;28;20173;-87
2023/02/01 05:21:44;;;;;;;12.03;4.47;;;6.60;80.80;;;;;;5053671;28;20161;-87
2023/02/01 05:24:10;;;;;;;16.90;4.80;;;6.50;82.70;;;;;;5054420;28;20216;-88
2023/02/01 05:26:37;;;;;;;16.67;4.83;;;6.60;85.40;;;;;;5056247;28;20217;-87
2023/02/01 05:29:05;;;;;;;16.43;4.77;;;6.60;85.40;;;;;;5058301;28;20177;-89
2023/02/01 05:31:32;;;;;;;13.97;3.77;;;6.50;84.70;;;;;;5057642;28;20641;-87
2023/02/01 05:33:58;;;;;;;16.30;4.37;;;6.40;88.40;;;;;;5059342;28;20161;-88
2023/02/01 05:36:24;;;;;;;14.50;4.60;;;6.40;88.70;;;;;;5058518;28;20510;-86
2023/02/01 05:38:50;;;;;;;15.40;4.57;;;6.50;85.80;;;;;;5058767;28;20184;-87
2023/02/01 05:41:15;;;;;;;17.20;4.67;;;6.50;86.60;;;;;;5059809;28;20177;-87
2023/02/01 05:43:41;;;;;;;18.53;5.03;;;6.40;87.70;;;;;;5061154;28;20214;-88
2023/02/01 05:46:07;;;;;;;17.17;4.53;;;6.40;89.10;;;;;;5072320;28;20193;-85
2023/02/01 05:48:32;;;;;;;12.50;4.33;;;6.30;90.60;;;;;;5076171;28;20165;-87
2023/02/01 05:50:59;;;;;;;13.73;4.07;;;6.20;91.40;;;;;;5063665;28;20169;-87
2023/02/01 05:53:25;;;;;;;12.17;4.20;;;6.10;91.50;;;;;;5061590;28;20215;-88
2023/02/01 05:55:53;;;;;;;15.87;4.30;;;6.10;92.00;;;;;;5060352;28;20173;-88
2023/02/01 05:58:21;;;;;;;13.37;3.97;;;6.00;92.10;;;;;;5070452;28;20150;-85
2023/02/01 06:00:47;;;;;;;12.37;3.90;;;6.20;91.30;;;;;;5070279;28;20188;-88
2023/02/01 06:03:12;;;;;;;16.30;4.00;;;6.20;88.80;;;;;;5063634;28;20601;-86
2023/02/01 06:05:38;;;;;;;15.73;4.43;;;6.10;91.10;;;;;;5068877;28;20235;-85
2023/02/01 06:08:04;;;;;;;16.13;4.67;;;6.00;92.90;;;;;;5070648;28;20176;-88
2023/02/01 06:10:31;;;;;;;18.30;4.57;;;6.10;92.60;;;;;;5076443;28;20149;-83
2023/02/01 06:12:58;;;;;;;14.63;4.37;;;6.20;90.60;;;;;;5079154;28;20181;-85
2023/02/01 06:15:25;;;;;;;14.00;4.43;;;6.20;90.10;;;;;;5079228;28;20187;-84
2023/02/01 06:18:19;;;;;;;15.83;4.40;;;6.10;91.00;;;;;;5076650;28;20282;-88
2023/02/01 06:20:45;;;;;;;18.30;4.63;;;6.10;90.70;;;;;;5070556;28;20153;-87
2023/02/01 06:23:23;;;;;;;19.23;4.83;;;6.00;91.90;;;;;;5068086;28;20204;-87
2023/02/01 06:25:51;;;;;;;16.90;4.13;;;6.00;92.50;;;;;;5065175;28;20240;-89
2023/02/01 06:28:16;;;;;;;17.87;4.70;;;6.00;91.80;;;;;;5070372;28;20192;-87
2023/02/01 06:30:45;;;;;;;20.00;5.03;;;6.00;92.30;;;;;;5066387;28;20234;-89
2023/02/01 06:33:14;;;;;;;17.53;3.83;;;6.10;91.70;;;;;;5061125;28;20618;-87
2023/02/01 06:35:44;;;;;;;17.80;4.23;;;6.00;91.30;;;;;;5062163;28;20196;-89
2023/02/01 06:38:11;;;;;;;16.03;4.47;;;6.00;91.90;;;;;;5057215;28;20153;-87
2023/02/01 06:40:37;;;;;;;17.13;4.33;;;6.10;91.50;;;;;;5058485;28;20572;-88
2023/02/01 06:43:03;;;;;;;13.33;3.87;;;6.00;91.60;;;;;;5057049;28;20173;-87
2023/02/01 06:45:29;;;;;;;20.50;4.67;;;6.10;92.20;;;;;;5057828;28;20227;-90
2023/02/01 06:47:55;;;;;;;17.57;5.10;;;6.10;91.90;;;;;;5060116;28;20169;-88
2023/02/01 06:50:21;;;;;;;19.60;5.13;;;6.10;91.90;;;;;;5067690;28;20188;-88
2023/02/01 06:52:46;;;;;;;19.67;5.17;;;6.10;92.10;;;;;;5076914;28;20172;-87
2023/02/01 06:55:13;;;;;;;25.37;5.50;;;6.10;91.50;;;;;;5065247;28;20637;-87
2023/02/01 06:57:39;;;;;;;17.87;6.07;;;6.00;92.40;;;;;;5063990;28;20226;-87
2023/02/01 07:00:17;;;;;;;19.63;5.40;;;6.00;93.60;;;;;;5060077;28;20165;-89
2023/02/01 07:02:43;;;;;;;18.33;4.43;;;6.00;93.30;;;;;;5057934;28;20730;-87
2023/02/01 07:05:09;;;;;;;20.23;5.17;;;6.00;93.60;;;;;;5057892;28;20192;-91
2023/02/01 07:07:37;;;;;;;18.57;5.13;;;6.10;93.50;;;;;;5059007;28;20559;-90
2023/02/01 07:10:05;;;;;;;17.43;4.47;;;6.20;91.90;;;;;;5059636;28;20640;-90
2023/02/01 07:12:31;;;;;;;17.17;5.07;;;6.10;91.80;;;;;;5055206;28;20617;-89
2023/02/01 07:14:57;;;;;;;18.97;4.87;;;6.10;91.90;;;;;;5058651;28;20185;-85
2023/02/01 07:17:23;;;;;;;18.33;4.47;;;6.20;91.80;;;;;;5055012;28;20195;-87
2023/02/01 07:19:49;;;;;;;21.77;4.83;;;6.10;92.40;;;;;;5057239;28;20164;-84
2023/02/01 07:22:18;;;;;;;15.93;4.47;;;5.90;92.90;;;;;;5062606;28;20173;-92
2023/02/01 07:24:44;;;;;;;17.47;5.00;;;5.90;93.70;;;;;;5067161;28;20222;-89
2023/02/01 07:27:10;;;;;;;15.03;4.80;;;6.20;92.80;;;;;;5063383;28;20216;-89
2023/02/01 07:29:35;;;;;;;19.73;5.20;;;6.10;92.00;;;;;;5064459;28;20247;-91
2023/02/01 07:32:03;;;;;;;19.67;5.43;;;6.10;93.30;;;;;;5065806;28;20177;-91
2023/02/01 07:34:33;;;;;;;18.93;4.67;;;6.10;93.70;;;;;;5068957;28;20192;-87
2023/02/01 07:37:02;;;;;;;19.37;4.33;;;6.20;94.30;;;;;;5074367;28;20219;-91
2023/02/01 07:39:28;;;;;;;17.83;5.03;;;6.00;94.50;;;;;;5070270;28;20268;-89
2023/02/01 07:41:57;;;;;;;20.07;5.43;;;6.10;94.40;;;;;;5073755;28;20165;-89
2023/02/01 07:44:24;;;;;;;16.30;4.20;;;6.00;94.50;;;;;;5067501;28;20212;-90
2023/02/01 07:46:50;;;;;;;18.43;5.30;;;6.10;92.50;;;;;;5067911;28;20225;-92
2023/02/01 07:49:17;;;;;;;13.27;4.20;;;6.10;93.20;;;;;;5062806;28;20208;-88
2023/02/01 07:51:43;;;;;;;17.80;5.27;;;6.10;93.40;;;;;;5056061;28;20173;-85
2023/02/01 07:54:09;;;;;;;14.20;4.73;;;6.20;93.50;;;;;;5053267;28;20189;-85
2023/02/01 07:56:34;;;;;;;19.13;5.07;;;6.10;93.60;;;;;;5057269;28;20180;-85
2023/02/01 07:59:01;;;;;;;21.20;6.10;;;6.30;93.40;;;;;;5060467;28;20199;-86
2023/02/01 08:01:28;;;;;;;19.70;5.37;;;6.20;92.90;;;;;;5058120;28;20173;-89
2023/02/01 08:04:02;;;;;;;18.27;5.23;;;6.20;92.90;;;;;;5054562;28;20165;-87
2023/02/01 08:06:33;;;;;;;18.03;4.63;;;6.20;92.70;;;;;;5052988;28;20295;-88
2023/02/01 08:08:59;;;;;;;19.73;5.30;;;6.40;92.70;;;;;;5055849;28;20184;-87
2023/02/01 08:11:27;;;;;;;13.57;4.23;;;6.50;91.30;;;;;;5058305;28;20549;-86
2023/02/01 08:13:53;;;;;;;18.87;5.33;;;6.30;91.80;;;;;;5072770;28;20181;-86
2023/02/01 08:16:21;;;;;;;15.40;5.23;;;6.20;92.50;;;;;;5064586;28;20176;-88
2023/02/01 08:18:47;;;;;;;18.97;4.77;;;6.40;92.20;;;;;;5054632;28;20181;-87
2023/02/01 08:21:20;;;;;;;20.80;5.27;;;6.40;91.10;;;;;;5052053;28;20236;-87
2023/02/01 08:23:46;;;;;;;24.40;6.27;;;6.50;91.30;;;;;;5053830;28;20253;-87
2023/02/01 08:26:22;;;;;;;23.57;5.97;;;6.30;91.70;;;;;;5049968;28;20208;-88
2023/02/01 08:28:52;;;;;;;21.10;5.57;;;6.50;91.00;;;;;;5059759;28;20172;-84
2023/02/01 08:31:21;;;;;;;17.47;5.33;;;6.30;91.60;;;;;;5070931;28;20223;-86
2023/02/01 08:33:55;;;;;;;19.83;4.63;;;6.40;91.50;;;;;;5053421;28;20165;-86
2023/02/01 08:36:21;;;;;;;14.93;4.83;;;6.40;91.70;;;;;;5050231;28;20180;-88
2023/02/01 08:38:47;;;;;;;19.83;5.37;;;6.40;91.60;;;;;;5058344;28;20227;-88
2023/02/01 08:41:16;;;;;;;20.70;5.10;;;6.40;91.70;;;;;;5070168;28;20236;-86
2023/02/01 08:43:43;;;;;;;18.00;5.67;;;6.50;92.10;;;;;;5058001;28;20218;-88
2023/02/01 08:46:13;;;;;;;15.73;4.77;;;6.40;91.40;;;;;;5051161;28;20208;-86
2023/02/01 08:48:39;;;;;;;18.40;4.97;;;6.40;91.40;;;;;;5051997;28;20629;-87
2023/02/01 08:51:07;;;;;;;17.70;5.47;;;6.50;91.70;;;;;;5050656;28;20177;-85
2023/02/01 08:53:33;;;;;;;19.10;5.60;;;6.60;91.20;;;;;;5052049;28;20727;-88
2023/02/01 08:55:58;;;;;;;17.90;4.80;;;6.60;91.20;;;;;;5061580;28;20189;-87
2023/02/01 08:58:24;;;;;;;16.53;5.13;;;6.70;90.30;;;;;;5071936;28;20245;-87
2023/02/01 09:00:50;;;;;;;15.87;4.10;;;6.80;90.10;;;;;;5054788;28;20196;-88
2023/02/01 09:03:17;;;;;;;24.20;5.73;;;6.90;91.20;;;;;;5055685;28;20170;-87
2023/02/01 09:05:44;;;;;;;24.50;5.23;;;6.80;89.60;;;;;;5044499;28;20227;-87
2023/02/01 09:08:13;;;;;;;23.27;5.37;;;7.10;87.10;;;;;;5057504;28;20177;-85
2023/02/01 09:10:39;;;;;;;20.70;5.80;;;7.10;84.50;;;;;;5057724;28;20205;-87
2023/02/01 09:13:05;;;;;;;16.87;4.90;;;7.10;84.50;;;;;;5055838;28;20227;-87
2023/02/01 09:15:31;;;;;;;23.07;5.83;;;7.10;82.20;;;;;;5056373;28;20227;-86
2023/02/01 09:17:56;;;;;;;17.60;6.10;;;7.20;81.50;;;;;;5057736;28;20204;-88
2023/02/01 09:20:23;;;;;;;18.77;5.03;;;7.30;77.50;;;;;;5039039;28;20203;-85
2023/02/01 09:22:51;;;;;;;20.80;7.43;;;7.20;79.80;;;;;;5057006;28;20193;-85
2023/02/01 09:25:17;;;;;;;19.63;7.93;;;7.40;80.10;;;;;;5053406;28;20328;-87
2023/02/01 09:27:43;;;;;;;14.90;5.10;;;7.40;78.90;;;;;;5056015;28;20708;-89
2023/02/01 09:30:09;;;;;;;15.47;4.97;;;7.50;78.00;;;;;;5057291;28;20254;-90
2023/02/01 09:32:35;;;;;;;18.53;5.07;;;7.60;77.40;;;;;;5021231;28;20186;-87
2023/02/01 09:35:01;;;;;;;20.03;4.53;;;7.70;76.00;;;;;;5047138;28;20173;-88
2023/02/01 09:37:28;;;;;;;18.93;5.43;;;7.60;76.50;;;;;;5059041;28;20175;-86
2023/02/01 09:39:54;;;;;;;16.93;4.40;;;7.70;75.90;;;;;;5057491;28;20184;-88
2023/02/01 09:42:44;;;;;;;13.30;5.50;;;7.80;72.50;;;;;;5057816;28;20610;-88
2023/02/01 09:45:10;;;;;;;19.87;5.73;;;7.90;71.90;;;;;;5057296;28;20177;-87
2023/02/01 09:47:39;;;;;;;16.03;4.90;;;8.00;69.50;;;;;;5056357;28;20271;-85
2023/02/01 09:50:21;;;;;;;16.87;4.80;;;8.10;66.10;;;;;;5055184;28;20227;-83
2023/02/01 09:53:00;;;;;;;14.10;4.97;;;8.60;65.10;;;;;;5052375;28;20184;-81
2023/02/01 09:55:47;;;;;;;20.40;5.07;;;8.60;60.60;;;;;;5054970;28;20232;-83
2023/02/01 09:58:27;;;;;;;16.23;4.80;;;8.70;54.80;;;;;;5057456;28;20721;-86
2023/02/01 10:00:59;;;;;;;17.97;5.57;;;8.60;55.20;;;;;;5040481;28;20243;-81
2023/02/01 10:03:29;;;;;;;16.07;4.43;;;8.50;54.50;;;;;;5056503;28;20173;-84
2023/02/01 10:06:01;;;;;;;18.07;4.87;;;8.50;53.70;;;;;;5055270;28;20212;-81
2023/02/01 10:08:48;;;;;;;16.87;4.50;;;8.60;56.00;;;;;;5056420;28;20201;-80
2023/02/01 10:11:48;;;;;;;23.17;4.63;;;8.70;49.70;;;;;;5056366;28;20219;-89
2023/02/01 10:14:26;;;;;;;15.97;4.50;;;8.50;49.60;;;;;;5058258;28;20212;-86
2023/02/01 10:17:32;;;;;;;15.90;4.73;;;8.60;47.70;;;;;;5070026;28;20175;-83
2023/02/01 10:20:01;;;;;;;15.97;4.60;;;8.70;47.50;;;;;;5027766;28;20180;-86
2023/02/01 10:22:33;;;;;;;15.47;4.57;;;8.50;48.10;;;;;;5060554;28;20188;-82
2023/02/01 10:25:20;;;;;;;13.57;3.93;;;8.50;49.00;;;;;;5062381;28;20177;-88
2023/02/01 10:27:46;;;;;;;11.47;3.83;;;8.50;45.60;;;;;;5058287;28;20190;-84
2023/02/01 10:30:20;;;;;;;16.97;3.87;;;8.60;48.20;;;;;;5021795;28;20193;-86
2023/02/01 10:33:03;;;;;;;14.33;3.80;;;8.60;47.30;;;;;;5035591;28;20165;-84
2023/02/01 10:35:33;;;;;;;13.53;3.83;;;8.70;45.80;;;;;;5023717;28;20177;-85
2023/02/01 10:38:02;;;;;;;17.90;4.47;;;8.80;42.00;;;;;;5038016;28;20189;-94
2023/02/01 10:40:28;;;;;;;13.73;4.20;;;8.80;42.40;;;;;;5037177;28;20661;-86
2023/02/01 10:42:59;;;;;;;19.50;3.83;;;8.90;40.60;;;;;;5037717;28;20181;-87
2023/02/01 10:45:28;;;;;;;14.47;4.07;;;9.00;40.00;;;;;;5048938;28;20173;-83
2023/02/01 10:47:57;;;;;;;16.03;4.10;;;9.10;36.20;;;;;;5047973;28;20180;-87
2023/02/01 10:50:42;;;;;;;15.30;3.87;;;9.00;36.20;;;;;;5040269;28;20170;-89
2023/02/01 10:53:25;;;;;;;12.17;3.80;;;9.00;37.30;;;;;;5036927;28;20189;-88
2023/02/01 10:55:53;;;;;;;14.20;3.93;;;9.00;36.30;;;;;;5055778;28;20208;-85
2023/02/01 10:58:25;;;;;;;10.67;3.67;;;9.20;34.40;;;;;;5056857;28;20172;-85
2023/02/01 11:01:10;;;;;;;11.13;3.87;;;9.10;32.00;;;;;;5068079;28;20244;-88
2023/02/01 11:03:54;;;;;;;11.73;3.60;;;9.10;32.70;;;;;;5062101;28;20169;-86
2023/02/01 11:06:36;;;;;;;9.77;3.37;;;9.20;34.80;;;;;;5068560;28;20211;-84
2023/02/01 11:09:23;;;;;;;13.87;4.07;;;9.10;30.00;;;;;;5066763;28;20221;-91
2023/02/01 11:11:58;;;;;;;17.80;3.90;;;9.20;32.00;;;;;;5075498;28;20165;-83
2023/02/01 11:14:42;;;;;;;13.57;3.03;;;9.20;31.10;;;;;;5072653;28;20240;-85
2023/02/01 11:17:33;;;;;;;11.30;3.37;;;9.30;29.50;;;;;;5074885;28;20168;-84
2023/02/01 11:20:17;;;;;;;11.67;3.87;;;9.40;27.40;;;;;;5069930;28;20201;-85
2023/02/01 11:22:54;;;;;;;16.83;4.33;;;9.30;27.30;;;;;;5075715;28;20199;-88
2023/02/01 11:25:21;;;;;;;12.57;3.40;;;9.40;29.70;;;;;;5073429;28;20232;-87
2023/02/01 11:27:53;;;;;;;14.33;3.43;;;9.40;26.30;;;;;;5075362;28;20208;-83
2023/02/01 11:30:42;;;;;;;10.50;4.10;;;9.50;27.10;;;;;;5075324;28;20252;-82
2023/02/01 11:33:20;;;;;;;14.63;3.70;;;9.50;23.30;;;;;;5071939;28;20192;-83
2023/02/01 11:35:52;;;;;;;11.17;3.70;;;9.50;24.80;;;;;;5063383;28;20180;-86
2023/02/01 11:38:18;;;;;;;11.00;3.90;;;9.50;21.20;;;;;;5058659;28;20219;-86
2023/02/01 11:40:43;;;;;;;9.97;3.70;;;9.60;24.30;;;;;;5062841;28;20177;-87
2023/02/01 11:43:27;;;;;;;12.00;3.27;;;9.60;22.20;;;;;;5061630;28;20176;-90
2023/02/01 11:46:10;;;;;;;9.97;2.70;;;9.70;21.50;;;;;;5072475;28;20203;-88
2023/02/01 11:48:36;;;;;;;12.73;3.10;;;9.70;18.70;;;;;;5075618;28;20176;-84
2023/02/01 11:51:22;;;;;;;10.07;2.97;;;9.80;2.50;;;;;;5066666;28;20169;-84
2023/02/01 11:54:10;;;;;;;12.97;3.63;;;9.80;1.00;;;;;;5070034;28;20256;-84
2023/02/01 11:56:59;;;;;;;10.57;3.07;;;9.80;1.00;;;;;;5070223;28;20181;-84
2023/02/01 11:59:41;;;;;;;10.57;2.70;;;9.90;1.00;;;;;;5064021;28;20272;-85
2023/02/01 12:02:38;;;;;;;9.80;2.50;;;9.90;1.00;;;;;;5060839;28;20215;-87
2023/02/01 12:05:22;;;;;;;10.60;3.00;;;9.90;1.00;;;;;;5062819;28;20211;-86
2023/02/01 12:08:18;;;;;;;11.17;3.80;;;9.90;1.00;;;;;;5062065;28;20257;-87
2023/02/01 12:11:08;;;;;;;10.23;3.30;;;10.00;1.00;;;;;;5078121;28;20207;-83
2023/02/01 12:13:57;;;;;;;12.53;2.80;;;10.10;1.00;;;;;;5069582;28;20179;-83
2023/02/01 12:23:41;;;;;;;9.20;3.33;;;10.30;1.00;;;;;;5058673;28;20165;-85
2023/02/01 12:26:44;;;;;;;9.67;2.83;;;10.50;1.00;;;;;;5058555;28;20287;-85
2023/02/01 12:29:58;;;;;;;8.30;2.87;;;10.50;1.00;;;;;;5066890;28;20184;-89
2023/02/01 12:33:01;;;;;;;12.27;3.53;;;10.50;1.00;;;;;;5004129;28;20197;-90
2023/02/01 12:36:04;;;;;;;9.83;2.80;;;10.50;1.00;;;;;;5001212;28;20221;-87
2023/02/01 12:38:38;;;;;;;8.50;2.60;;;10.60;1.00;;;;;;5004166;28;20184;-85
2023/02/01 12:41:38;;;;;;;7.93;2.67;;;10.70;1.00;;;;;;5005163;28;20178;-88
2023/02/01 12:44:25;;;;;;;9.93;2.90;;;10.90;1.00;;;;;;5069303;28;20169;-90
2023/02/01 12:47:06;;;;;;;8.10;2.87;;;10.90;1.00;;;;;;5072085;28;20230;-88
2023/02/01 12:49:52;;;;;;;10.57;3.77;;;10.90;1.00;;;;;;5065455;28;20621;-86
2023/02/01 12:52:45;;;;;;;12.47;2.93;;;10.80;1.00;;;;;;5061672;28;20180;-93
2023/02/01 12:55:29;;;;;;;8.77;3.20;;;10.80;1.00;;;;;;5058001;28;20180;-88
2023/02/01 12:58:38;;;;;;;9.30;2.63;;;10.90;1.00;;;;;;5060384;28;20172;-90
2023/02/01 13:01:18;;;;;;;6.53;2.40;;;10.80;1.00;;;;;;5054067;28;20177;-87
2023/02/01 13:04:05;;;;;;;9.67;2.90;;;10.90;1.00;;;;;;5075164;28;20245;-85
2023/02/01 13:06:55;;;;;;;8.57;2.20;;;11.20;1.00;;;;;;5064517;28;20212;-90
2023/02/01 13:09:28;;;;;;;8.40;2.37;;;11.20;1.00;;;;;;5061584;28;20165;-88
2023/02/01 13:11:59;;;;;;;10.37;2.33;;;11.30;1.00;;;;;;5061167;28;20177;-86
2023/02/01 13:14:50;;;;;;;11.40;2.67;;;11.30;1.00;;;;;;5058658;28;20806;-88
2023/02/01 13:17:24;;;;;;;8.83;3.20;;;11.30;1.00;;;;;;5044481;28;20171;-88
2023/02/01 13:20:02;;;;;;;9.70;2.80;;;11.20;1.00;;;;;;5072193;28;20172;-88
2023/02/01 13:22:36;;;;;;;14.80;3.50;;;11.10;1.00;;;;;;5059031;28;20177;-86
2023/02/01 13:25:07;;;;;;;9.43;2.70;;;11.10;1.00;;;;;;5057140;28;20188;-85
2023/02/01 13:27:33;;;;;;;8.67;1.97;;;11.10;1.00;;;;;;5056633;28;20216;-85
2023/02/01 13:30:12;;;;;;;9.97;2.23;;;11.10;1.00;;;;;;5059331;28;20176;-87
2023/02/01 13:32:54;;;;;;;13.83;3.27;;;10.90;1.00;;;;;;5067676;28;20782;-85
2023/02/01 13:35:44;;;;;;;9.57;2.73;;;11.00;1.00;;;;;;5066211;28;20176;-87
2023/02/01 13:38:57;;;;;;;9.83;2.83;;;11.00;1.00;;;;;;5060121;28;20165;-85
2023/02/01 13:41:29;;;;;;;7.87;2.33;;;11.20;1.00;;;;;;5000038;28;20186;-85
2023/02/01 13:44:01;;;;;;;11.23;2.70;;;11.10;1.00;;;;;;5057926;28;20272;-86